Time;durP1;ratioP1;P1;durP2;ratioP2;P2;SDS_P1;SDS_P2;PMS_P1;PMS_P2;Temp;Humidity;BMP_temperature;BMP_pressure;BME280_temperature;BME280_humidity;BME280_pressure;Samples;Min_cycle;Max_cycle;Signal;HPM_P1;HPM_P2
2022/07/12 00:02:06;;;;;;;0.10;0.10;;;19.70;99.90;;;;;;4971983;28;20439;-67
2022/07/12 00:04:32;;;;;;;0.08;0.08;;;19.90;99.90;;;;;;4954862;28;20042;-67
2022/07/12 00:06:58;;;;;;;2.25;1.35;;;19.90;99.90;;;;;;4955180;28;20382;-66
2022/07/12 00:09:24;;;;;;;0.65;0.32;;;19.80;99.90;;;;;;4972111;28;20391;-66
2022/07/12 00:11:49;;;;;;;0.00;0.00;;;19.80;99.90;;;;;;4955065;28;20035;-66
2022/07/12 00:14:15;;;;;;;0.10;0.10;;;19.50;99.90;;;;;;4972072;28;20058;-66
2022/07/12 00:16:41;;;;;;;0.00;0.00;;;19.40;99.90;;;;;;4972269;28;20498;-66
2022/07/12 00:19:07;;;;;;;0.00;0.00;;;19.20;99.90;;;;;;4990879;28;20449;-66
2022/07/12 00:21:32;;;;;;;0.00;0.00;;;19.10;99.90;;;;;;4976346;28;20026;-66
2022/07/12 00:23:58;;;;;;;0.00;0.00;;;18.90;99.90;;;;;;4977777;28;20030;-66
2022/07/12 00:26:24;;;;;;;0.00;0.00;;;18.80;99.90;;;;;;4978124;28;20597;-66
2022/07/12 00:28:50;;;;;;;0.00;0.00;;;18.70;99.90;;;;;;4977648;28;20066;-66
2022/07/12 00:31:16;;;;;;;1.45;0.82;;;18.70;99.90;;;;;;4977922;28;20105;-66
2022/07/12 00:33:41;;;;;;;0.00;0.00;;;18.60;99.90;;;;;;4994999;28;20544;-66
2022/07/12 00:36:08;;;;;;;0.00;0.00;;;18.60;99.90;;;;;;4995469;28;20440;-66
2022/07/12 00:38:34;;;;;;;0.80;0.47;;;18.50;99.90;;;;;;4961443;28;20026;-67
2022/07/12 00:40:59;;;;;;;0.00;0.00;;;18.50;99.90;;;;;;4994906;28;20037;-66
2022/07/12 00:43:26;;;;;;;0.00;0.00;;;18.60;99.90;;;;;;4994782;28;20486;-66
2022/07/12 00:45:52;;;;;;;0.10;0.10;;;18.60;99.90;;;;;;4977829;28;20509;-66
2022/07/12 00:48:18;;;;;;;0.00;0.00;;;18.60;99.90;;;;;;4961358;28;20077;-66
2022/07/12 00:50:46;;;;;;;0.00;0.00;;;18.60;99.90;;;;;;4994730;28;20053;-66
2022/07/12 00:53:14;;;;;;;0.00;0.00;;;18.60;99.90;;;;;;4977192;28;20034;-66
2022/07/12 00:55:40;;;;;;;0.00;0.00;;;18.60;99.90;;;;;;4994969;28;20042;-66
2022/07/12 00:58:06;;;;;;;0.05;0.05;;;18.60;99.90;;;;;;4977160;28;20034;-66
2022/07/12 01:00:32;;;;;;;0.13;0.13;;;18.60;99.90;;;;;;4994553;28;20030;-66
2022/07/12 01:03:01;;;;;;;0.00;0.00;;;18.60;99.90;;;;;;4976966;28;20089;-66
2022/07/12 01:05:28;;;;;;;0.00;0.00;;;18.50;99.90;;;;;;4947559;28;20044;-66
2022/07/12 01:07:55;;;;;;;0.20;0.20;;;18.50;99.90;;;;;;4981030;28;20099;-66
2022/07/12 01:10:21;;;;;;;0.17;0.17;;;18.30;99.90;;;;;;4963512;28;20018;-66
2022/07/12 01:12:47;;;;;;;0.20;0.17;;;18.20;99.90;;;;;;4976891;28;20081;-66
2022/07/12 01:15:13;;;;;;;0.10;0.03;;;18.10;99.90;;;;;;4970813;28;20038;-66
2022/07/12 01:17:40;;;;;;;0.10;0.10;;;18.10;99.90;;;;;;4958178;28;20130;-66
2022/07/12 01:20:07;;;;;;;0.00;0.00;;;18.00;99.90;;;;;;4970578;28;20031;-66
2022/07/12 01:22:36;;;;;;;0.00;0.00;;;17.90;99.90;;;;;;4937953;29;20566;-66
2022/07/12 01:25:04;;;;;;;0.17;0.17;;;17.90;99.90;;;;;;4976257;28;20030;-66
2022/07/12 01:27:30;;;;;;;1.05;0.77;;;17.90;99.90;;;;;;4957415;28;20031;-66
2022/07/12 01:29:56;;;;;;;1.50;0.60;;;17.80;99.90;;;;;;4975009;28;20027;-67
2022/07/12 01:32:25;;;;;;;0.00;0.00;;;17.80;99.90;;;;;;4956948;28;20031;-66
2022/07/12 01:35:05;;;;;;;0.10;0.10;;;17.80;99.90;;;;;;4957844;28;20037;-66
2022/07/12 01:37:35;;;;;;;0.00;0.00;;;17.70;99.90;;;;;;4957810;28;20498;-65
2022/07/12 01:40:05;;;;;;;0.00;0.00;;;17.70;99.90;;;;;;4957714;28;20117;-66
2022/07/12 01:42:31;;;;;;;0.00;0.00;;;17.70;99.90;;;;;;4958410;28;20039;-66
2022/07/12 01:44:57;;;;;;;0.00;0.00;;;17.70;99.90;;;;;;4938486;29;20098;-66
2022/07/12 01:47:28;;;;;;;0.00;0.00;;;17.80;99.90;;;;;;4965690;28;20031;-66
2022/07/12 01:49:53;;;;;;;0.32;0.20;;;17.70;99.90;;;;;;4960416;28;20022;-66
2022/07/12 01:52:20;;;;;;;0.30;0.22;;;17.70;99.90;;;;;;4976116;28;20050;-66
2022/07/12 01:54:46;;;;;;;0.00;0.00;;;17.70;99.90;;;;;;4976098;28;20569;-66
2022/07/12 01:57:12;;;;;;;1.23;0.80;;;17.70;99.90;;;;;;4975891;28;20030;-66
2022/07/12 01:59:39;;;;;;;0.00;0.00;;;17.80;99.90;;;;;;4976188;28;20097;-66
2022/07/12 02:02:05;;;;;;;0.00;0.00;;;18.10;99.90;;;;;;4959848;28;20038;-66
2022/07/12 02:04:31;;;;;;;0.00;0.00;;;18.10;99.90;;;;;;4976112;28;20029;-66
2022/07/12 02:06:57;;;;;;;0.00;0.00;;;18.20;99.90;;;;;;4993542;28;20437;-66
2022/07/12 02:09:23;;;;;;;0.05;0.05;;;18.30;99.90;;;;;;4975885;28;20081;-66
2022/07/12 02:11:49;;;;;;;0.00;0.00;;;18.30;99.90;;;;;;4993341;28;20030;-66
2022/07/12 02:14:16;;;;;;;0.20;0.20;;;18.40;99.90;;;;;;4975752;28;20453;-66
2022/07/12 02:16:43;;;;;;;0.10;0.10;;;18.50;99.90;;;;;;4976210;28;20026;-66
2022/07/12 02:19:11;;;;;;;0.08;0.08;;;18.40;99.90;;;;;;4975540;28;20034;-66
2022/07/12 02:21:37;;;;;;;0.00;0.00;;;18.40;99.90;;;;;;4993430;28;20062;-66
2022/07/12 02:24:04;;;;;;;0.00;0.00;;;18.40;99.90;;;;;;4993031;28;20030;-66
2022/07/12 02:26:32;;;;;;;0.00;0.00;;;18.40;99.90;;;;;;4975751;28;20034;-66
2022/07/12 02:28:57;;;;;;;0.08;0.08;;;18.30;99.90;;;;;;4975808;28;20501;-66
2022/07/12 02:31:23;;;;;;;0.17;0.10;;;18.20;99.90;;;;;;4992930;28;20023;-66
2022/07/12 02:33:49;;;;;;;0.00;0.00;;;18.10;99.90;;;;;;4975221;28;20037;-66
2022/07/12 02:36:14;;;;;;;0.10;0.10;;;18.10;99.90;;;;;;4992904;28;20108;-66
2022/07/12 02:38:40;;;;;;;0.00;0.00;;;18.10;99.90;;;;;;4992624;28;20034;-66
2022/07/12 02:41:06;;;;;;;0.10;0.10;;;18.10;99.90;;;;;;4975560;28;20034;-66
2022/07/12 02:43:32;;;;;;;0.00;0.00;;;18.10;99.90;;;;;;4991900;28;20085;-66
2022/07/12 02:46:18;;;;;;;0.00;0.00;;;18.10;99.90;;;;;;4959337;28;20023;-66
2022/07/12 02:48:44;;;;;;;0.10;0.08;;;18.20;99.90;;;;;;4991868;28;20038;-66
2022/07/12 02:51:10;;;;;;;0.00;0.00;;;18.10;99.90;;;;;;4992619;28;20026;-66
2022/07/12 02:53:36;;;;;;;0.00;0.00;;;18.00;99.90;;;;;;4992184;28;20026;-66
2022/07/12 02:56:03;;;;;;;0.00;0.00;;;17.90;99.90;;;;;;4959047;28;20069;-66
2022/07/12 02:58:29;;;;;;;0.00;0.00;;;17.90;99.90;;;;;;4959015;28;20056;-66
2022/07/12 03:00:55;;;;;;;0.80;0.70;;;17.90;99.90;;;;;;4992350;28;20379;-66
2022/07/12 03:03:21;;;;;;;0.30;0.30;;;17.80;99.90;;;;;;4947146;28;20061;-66
2022/07/12 03:05:47;;;;;;;0.00;0.00;;;17.90;99.90;;;;;;4971973;28;20030;-66
2022/07/12 03:08:13;;;;;;;0.50;0.35;;;17.80;99.90;;;;;;4973823;28;20030;-66
2022/07/12 03:10:39;;;;;;;0.00;0.00;;;17.80;99.90;;;;;;4947018;28;20030;-66
2022/07/12 03:13:05;;;;;;;0.00;0.00;;;17.80;99.90;;;;;;4970466;28;20034;-66
2022/07/12 03:15:32;;;;;;;0.32;0.30;;;17.80;99.90;;;;;;4982092;28;20027;-66
2022/07/12 03:17:59;;;;;;;0.00;0.00;;;17.70;99.90;;;;;;4974351;28;20034;-66
2022/07/12 03:20:25;;;;;;;0.00;0.00;;;17.70;99.90;;;;;;4958379;28;20065;-66
2022/07/12 03:22:53;;;;;;;2.17;0.32;;;17.40;99.90;;;;;;4955206;28;20027;-66
2022/07/12 03:25:20;;;;;;;0.20;0.20;;;17.40;99.90;;;;;;4983103;28;20018;-66
2022/07/12 03:27:46;;;;;;;0.00;0.00;;;17.40;99.90;;;;;;4991924;28;20034;-66
2022/07/12 03:30:12;;;;;;;0.00;0.00;;;17.40;99.90;;;;;;4991567;28;20081;-66
2022/07/12 03:32:39;;;;;;;0.00;0.00;;;17.30;99.90;;;;;;4991900;28;20026;-66
2022/07/12 03:35:06;;;;;;;0.17;0.17;;;17.20;99.90;;;;;;4974918;28;20065;-66
2022/07/12 03:37:47;;;;;;;0.00;0.00;;;17.30;99.90;;;;;;4991726;28;20084;-66
2022/07/12 03:40:15;;;;;;;0.00;0.00;;;17.20;99.90;;;;;;4991571;28;20407;-67
2022/07/12 03:42:42;;;;;;;0.00;0.00;;;17.30;99.90;;;;;;4961103;28;20505;-67
2022/07/12 03:45:10;;;;;;;0.00;0.00;;;17.40;99.90;;;;;;4971173;28;20050;-67
2022/07/12 03:47:37;;;;;;;0.00;0.00;;;17.40;99.90;;;;;;4961682;28;20052;-67
2022/07/12 03:50:10;;;;;;;4.72;0.30;;;17.50;99.90;;;;;;4991690;28;20061;-67
2022/07/12 03:52:36;;;;;;;0.30;0.30;;;17.40;99.90;;;;;;4974594;28;20133;-67
2022/07/12 03:55:03;;;;;;;0.00;0.00;;;17.30;99.90;;;;;;4975173;28;20106;-67
2022/07/12 03:57:29;;;;;;;0.00;0.00;;;17.20;99.90;;;;;;4995750;28;20717;-67
2022/07/12 03:59:56;;;;;;;0.00;0.00;;;17.20;99.90;;;;;;4978571;28;20103;-67
2022/07/12 04:02:22;;;;;;;0.00;0.00;;;17.20;99.90;;;;;;4962107;28;20054;-67
2022/07/12 04:04:48;;;;;;;0.30;0.20;;;17.20;99.90;;;;;;4995391;28;20058;-67
2022/07/12 04:07:14;;;;;;;0.00;0.00;;;17.30;99.90;;;;;;4978109;28;20076;-67
2022/07/12 04:09:39;;;;;;;0.00;0.00;;;17.20;99.90;;;;;;4977862;28;20030;-66
2022/07/12 04:12:05;;;;;;;0.00;0.00;;;17.20;99.90;;;;;;4995440;28;20033;-67
2022/07/12 04:14:31;;;;;;;3.47;2.22;;;17.00;99.90;;;;;;4978145;28;20022;-67
2022/07/12 04:16:57;;;;;;;5.43;1.13;;;16.90;99.90;;;;;;4983011;28;20038;-67
2022/07/12 04:19:27;;;;;;;0.30;0.20;;;16.90;99.90;;;;;;4994815;28;20070;-67
2022/07/12 04:21:56;;;;;;;0.93;0.82;;;16.80;99.90;;;;;;4995390;28;20458;-67
2022/07/12 04:24:22;;;;;;;0.20;0.20;;;16.80;99.90;;;;;;4977520;28;20091;-67
2022/07/12 04:26:48;;;;;;;6.05;2.40;;;16.90;99.90;;;;;;4995190;28;20022;-67
2022/07/12 04:29:16;;;;;;;0.45;0.38;;;16.90;99.90;;;;;;4994853;28;20431;-67
2022/07/12 04:31:42;;;;;;;0.52;0.52;;;16.90;99.90;;;;;;4977678;28;20074;-67
2022/07/12 04:34:07;;;;;;;0.08;0.08;;;16.90;99.90;;;;;;4977514;28;20026;-67
2022/07/12 04:36:34;;;;;;;0.77;0.32;;;16.90;99.90;;;;;;4995619;28;20041;-67
2022/07/12 04:38:59;;;;;;;0.10;0.10;;;16.80;99.90;;;;;;4994643;28;20104;-67
2022/07/12 04:41:25;;;;;;;0.28;0.28;;;16.70;99.90;;;;;;4995104;28;20475;-67
2022/07/12 04:43:51;;;;;;;0.30;0.30;;;16.80;99.90;;;;;;4994596;28;20026;-67
2022/07/12 04:46:16;;;;;;;0.40;0.40;;;16.80;99.90;;;;;;4994371;28;20026;-66
2022/07/12 04:48:42;;;;;;;0.15;0.15;;;16.90;99.90;;;;;;4994761;28;20026;-66
2022/07/12 04:51:08;;;;;;;0.52;0.25;;;17.00;99.90;;;;;;4994571;28;20026;-66
2022/07/12 04:53:34;;;;;;;0.20;0.20;;;17.00;99.90;;;;;;4994238;28;20372;-66
2022/07/12 04:56:00;;;;;;;0.55;0.38;;;17.10;99.90;;;;;;4994275;28;20065;-66
2022/07/12 04:58:25;;;;;;;0.35;0.35;;;17.10;99.90;;;;;;4961122;28;20494;-71
2022/07/12 05:00:51;;;;;;;0.10;0.10;;;17.20;99.90;;;;;;4994209;28;20036;-71
2022/07/12 05:03:17;;;;;;;0.05;0.05;;;17.30;99.90;;;;;;4994233;28;20479;-73
2022/07/12 05:05:43;;;;;;;0.00;0.00;;;17.30;99.90;;;;;;4976901;28;20022;-72
2022/07/12 05:08:09;;;;;;;0.00;0.00;;;17.30;99.90;;;;;;4976065;28;20033;-72
2022/07/12 05:10:35;;;;;;;0.03;0.03;;;17.40;99.90;;;;;;4993968;28;20031;-72
2022/07/12 05:13:01;;;;;;;0.20;0.20;;;17.50;99.90;;;;;;4994260;28;20081;-72
2022/07/12 05:15:27;;;;;;;0.52;0.38;;;17.50;99.90;;;;;;4974289;28;20108;-72
2022/07/12 05:17:53;;;;;;;0.10;0.10;;;17.60;99.90;;;;;;4982674;28;20038;-72
2022/07/12 05:20:19;;;;;;;0.00;0.00;;;17.70;99.90;;;;;;4960559;28;20031;-72
2022/07/12 05:22:45;;;;;;;0.10;0.10;;;17.70;99.90;;;;;;4993572;28;20042;-72
2022/07/12 05:25:11;;;;;;;0.10;0.10;;;17.80;99.90;;;;;;4963552;28;20069;-72
2022/07/12 05:27:37;;;;;;;0.10;0.10;;;17.70;99.90;;;;;;4974363;28;20034;-73
2022/07/12 05:30:04;;;;;;;1.48;0.30;;;17.70;99.90;;;;;;4974351;28;20082;-72
2022/07/12 05:32:30;;;;;;;0.00;0.00;;;17.60;99.90;;;;;;4940595;28;20033;-68
2022/07/12 05:34:57;;;;;;;0.10;0.10;;;17.70;99.90;;;;;;4957359;28;20046;-68
2022/07/12 05:37:25;;;;;;;0.43;0.15;;;17.70;99.90;;;;;;4956807;28;20043;-68
2022/07/12 05:39:54;;;;;;;0.25;0.17;;;17.80;99.90;;;;;;4957021;28;20462;-68
2022/07/12 05:42:20;;;;;;;0.10;0.10;;;17.80;99.90;;;;;;4974011;28;20406;-67
2022/07/12 05:44:46;;;;;;;0.00;0.00;;;17.80;99.90;;;;;;4974371;28;20476;-68
2022/07/12 05:47:12;;;;;;;0.00;0.00;;;17.90;99.90;;;;;;4977564;28;20038;-68
2022/07/12 05:49:38;;;;;;;0.45;0.45;;;18.00;99.90;;;;;;4993399;28;20034;-68
2022/07/12 05:54:48;;;;;;;0.13;0.13;;;18.00;99.90;;;;;;4993470;28;20426;-68
2022/07/12 05:57:15;;;;;;;0.00;0.00;;;18.10;99.90;;;;;;4993255;28;20022;-68
2022/07/12 05:59:41;;;;;;;0.00;0.00;;;18.20;99.90;;;;;;4976127;28;20029;-68
2022/07/12 06:02:07;;;;;;;0.55;0.52;;;18.20;99.90;;;;;;4980178;28;20031;-67
2022/07/12 06:04:33;;;;;;;0.20;0.10;;;18.30;99.90;;;;;;4973993;28;20031;-68
2022/07/12 06:06:58;;;;;;;0.45;0.45;;;18.40;99.90;;;;;;4972347;28;20412;-66
2022/07/12 06:09:24;;;;;;;0.00;0.00;;;18.50;99.90;;;;;;4973741;28;20038;-66
2022/07/12 06:11:50;;;;;;;0.00;0.00;;;18.80;99.90;;;;;;4973509;28;20027;-66
2022/07/12 06:14:15;;;;;;;0.00;0.00;;;18.90;99.90;;;;;;4973921;28;20121;-66
2022/07/12 06:16:41;;;;;;;0.00;0.00;;;18.90;99.90;;;;;;4985849;28;20057;-66
2022/07/12 06:19:07;;;;;;;2.35;0.30;;;18.90;99.90;;;;;;4974380;28;20505;-66
2022/07/12 06:21:33;;;;;;;0.10;0.10;;;19.00;99.90;;;;;;4969643;28;20027;-66
2022/07/12 06:23:59;;;;;;;0.15;0.15;;;19.10;99.90;;;;;;4977606;28;20062;-65
2022/07/12 06:26:25;;;;;;;0.00;0.00;;;19.40;99.90;;;;;;4973327;28;20236;-67
2022/07/12 06:28:50;;;;;;;0.00;0.00;;;19.40;99.90;;;;;;4971845;28;20019;-66
2022/07/12 06:31:16;;;;;;;0.00;0.00;;;19.50;99.90;;;;;;4973128;28;20479;-68
2022/07/12 06:33:42;;;;;;;0.00;0.00;;;19.60;99.90;;;;;;4955106;28;20388;-68
2022/07/12 06:36:08;;;;;;;0.00;0.00;;;19.70;99.90;;;;;;4955731;28;20035;-66
2022/07/12 06:38:34;;;;;;;0.00;0.00;;;19.80;99.90;;;;;;4955605;28;20142;-68
2022/07/12 06:40:59;;;;;;;0.05;0.05;;;19.90;99.90;;;;;;4982313;28;20030;-67
2022/07/12 06:43:25;;;;;;;0.00;0.00;;;20.10;99.90;;;;;;4991374;28;20482;-69
2022/07/12 06:45:52;;;;;;;0.22;0.08;;;20.20;99.90;;;;;;4991219;28;20035;-70
2022/07/12 06:48:19;;;;;;;0.20;0.20;;;20.20;99.90;;;;;;4976355;28;20030;-71
2022/07/12 06:50:44;;;;;;;0.20;0.10;;;20.30;99.90;;;;;;4973464;28;20482;-71
2022/07/12 06:53:14;;;;;;;0.10;0.10;;;20.30;99.90;;;;;;4966775;28;20022;-67
2022/07/12 06:55:42;;;;;;;0.08;0.08;;;20.50;99.90;;;;;;4964989;28;20046;-68
2022/07/12 06:58:08;;;;;;;0.00;0.00;;;20.40;99.90;;;;;;4973287;28;20509;-68
2022/07/12 07:00:33;;;;;;;0.20;0.20;;;20.40;99.90;;;;;;4985887;28;20030;-69
2022/07/12 07:02:59;;;;;;;0.00;0.00;;;20.40;99.90;;;;;;4957247;28;20038;-68
2022/07/12 07:05:25;;;;;;;0.28;0.28;;;20.30;99.90;;;;;;4991526;28;20041;-69
2022/07/12 07:07:51;;;;;;;0.00;0.00;;;20.40;99.90;;;;;;4990847;28;20022;-68
2022/07/12 07:10:16;;;;;;;0.10;0.00;;;20.50;99.90;;;;;;4954873;28;20030;-68
2022/07/12 07:12:42;;;;;;;0.00;0.00;;;20.60;99.90;;;;;;4972040;28;20035;-69
2022/07/12 07:15:08;;;;;;;0.00;0.00;;;20.70;99.90;;;;;;4975352;28;20129;-68
2022/07/12 07:17:34;;;;;;;0.00;0.00;;;20.90;99.90;;;;;;4982812;28;20042;-68
2022/07/12 07:20:00;;;;;;;0.00;0.00;;;20.90;99.90;;;;;;4973158;28;20034;-71
2022/07/12 07:22:27;;;;;;;0.00;0.00;;;21.00;99.90;;;;;;4973400;28;20121;-70
2022/07/12 07:24:53;;;;;;;0.00;0.00;;;21.10;99.90;;;;;;4965359;28;20069;-70
2022/07/12 07:27:19;;;;;;;0.00;0.00;;;21.00;99.90;;;;;;4990397;28;20027;-70
2022/07/12 07:32:29;;;;;;;0.00;0.00;;;21.20;99.90;;;;;;4958645;28;20062;-70
2022/07/12 07:34:55;;;;;;;0.00;0.00;;;21.30;99.90;;;;;;4972217;28;20062;-70
2022/07/12 07:37:20;;;;;;;0.00;0.00;;;21.30;99.90;;;;;;4972442;28;20038;-70
2022/07/12 07:39:46;;;;;;;0.10;0.10;;;21.50;99.90;;;;;;4954729;28;20442;-70
2022/07/12 07:42:12;;;;;;;0.00;0.00;;;21.50;99.90;;;;;;4971607;28;20553;-69
2022/07/12 07:44:37;;;;;;;0.00;0.00;;;21.60;99.90;;;;;;4972572;28;20547;-69
2022/07/12 07:47:04;;;;;;;0.03;0.03;;;21.70;99.90;;;;;;4974732;28;20116;-69
2022/07/12 07:49:29;;;;;;;0.13;0.13;;;21.70;99.90;;;;;;4991319;28;20041;-69
2022/07/12 07:51:55;;;;;;;0.47;0.47;;;21.90;99.90;;;;;;4977749;28;20034;-69
2022/07/12 07:54:24;;;;;;;0.00;0.00;;;21.80;99.90;;;;;;4991338;28;20157;-70
2022/07/12 07:56:50;;;;;;;0.00;0.00;;;21.90;99.90;;;;;;4958392;28;20031;-69
2022/07/12 07:59:16;;;;;;;0.00;0.00;;;22.00;99.90;;;;;;4991188;28;20026;-71
2022/07/12 08:01:45;;;;;;;0.10;0.10;;;22.10;99.90;;;;;;4991357;28;20038;-70
2022/07/12 08:04:12;;;;;;;0.52;0.30;;;22.10;99.90;;;;;;4958762;28;20031;-70
2022/07/12 08:06:39;;;;;;;0.10;0.10;;;22.20;99.90;;;;;;4991800;28;20459;-70
2022/07/12 08:09:05;;;;;;;0.10;0.10;;;22.30;99.90;;;;;;4963010;28;20133;-70
2022/07/12 08:11:32;;;;;;;0.00;0.00;;;22.10;99.90;;;;;;4971825;28;20475;-70
2022/07/12 08:13:58;;;;;;;0.00;0.00;;;22.10;99.90;;;;;;4971820;28;20034;-70
2022/07/12 08:16:24;;;;;;;0.03;0.03;;;22.20;99.90;;;;;;4955578;28;20030;-71
2022/07/12 08:18:50;;;;;;;7.75;0.57;;;22.30;99.90;;;;;;4971038;28;20123;-71
2022/07/12 08:21:16;;;;;;;0.00;0.00;;;22.40;99.90;;;;;;4974100;28;20121;-71
2022/07/12 08:23:41;;;;;;;0.00;0.00;;;22.50;99.70;;;;;;4990465;28;20178;-70
2022/07/12 08:26:08;;;;;;;0.00;0.00;;;22.70;99.20;;;;;;4980444;28;20088;-71
2022/07/12 08:28:36;;;;;;;0.00;0.00;;;22.80;98.90;;;;;;4957487;28;20033;-72
2022/07/12 08:31:03;;;;;;;0.00;0.00;;;23.10;98.40;;;;;;4957878;28;20521;-71
2022/07/12 08:33:29;;;;;;;0.00;0.00;;;23.20;97.20;;;;;;4957282;28;20121;-71
2022/07/12 08:35:55;;;;;;;0.00;0.00;;;23.10;96.60;;;;;;4984915;28;20038;-71
2022/07/12 08:38:21;;;;;;;0.00;0.00;;;23.30;97.60;;;;;;4976132;28;20031;-71
2022/07/12 08:40:46;;;;;;;0.00;0.00;;;23.40;98.00;;;;;;4951222;28;20031;-71
2022/07/12 08:43:12;;;;;;;0.00;0.00;;;23.40;98.00;;;;;;4988660;28;20110;-71
2022/07/12 08:45:40;;;;;;;0.00;0.00;;;23.30;98.20;;;;;;4987465;28;20054;-71
2022/07/12 08:48:07;;;;;;;0.00;0.00;;;23.30;98.90;;;;;;4986888;28;20042;-71
2022/07/12 08:50:33;;;;;;;0.13;0.10;;;23.20;98.90;;;;;;4972500;28;20027;-71
2022/07/12 08:53:00;;;;;;;0.00;0.00;;;23.40;98.10;;;;;;4990464;28;20142;-71
2022/07/12 08:55:34;;;;;;;0.13;0.00;;;23.70;97.90;;;;;;4981022;28;20031;-70
2022/07/12 08:58:16;;;;;;;0.10;0.10;;;24.00;96.90;;;;;;4978757;28;20116;-71
2022/07/12 09:00:41;;;;;;;2.17;1.20;;;24.30;95.90;;;;;;4980238;28;20041;-71
2022/07/12 09:03:07;;;;;;;0.00;0.00;;;24.50;95.30;;;;;;4945934;28;20390;-71
2022/07/12 09:05:34;;;;;;;0.00;0.00;;;24.70;94.90;;;;;;4964178;28;20487;-71
2022/07/12 09:08:05;;;;;;;0.10;0.00;;;24.70;94.20;;;;;;4943748;28;20026;-71
2022/07/12 09:10:32;;;;;;;0.47;0.47;;;24.80;93.70;;;;;;4964493;28;20022;-71
2022/07/12 09:12:58;;;;;;;0.00;0.00;;;24.80;93.90;;;;;;4960478;28;20034;-70
2022/07/12 09:15:26;;;;;;;0.00;0.00;;;25.00;93.60;;;;;;4980650;28;20284;-70
2022/07/12 09:18:04;;;;;;;0.00;0.00;;;25.10;93.70;;;;;;4991162;28;20042;-71
2022/07/12 09:20:33;;;;;;;0.00;0.00;;;25.20;93.40;;;;;;4981946;28;20049;-70
2022/07/12 09:23:05;;;;;;;0.00;0.00;;;25.30;93.00;;;;;;4974363;28;20046;-70
2022/07/12 09:25:34;;;;;;;0.00;0.00;;;24.60;92.60;;;;;;4968704;28;20027;-70
2022/07/12 09:28:06;;;;;;;0.00;0.00;;;24.80;93.10;;;;;;4989931;28;20033;-70
2022/07/12 09:30:34;;;;;;;0.00;0.00;;;24.90;93.40;;;;;;4968350;28;20030;-70
2022/07/12 09:36:09;;;;;;;0.00;0.00;;;25.20;93.10;;;;;;4988544;28;20034;-71
2022/07/12 09:38:39;;;;;;;0.00;0.00;;;25.30;92.40;;;;;;4985317;28;20034;-71
2022/07/12 09:41:07;;;;;;;0.00;0.00;;;25.30;92.30;;;;;;4972024;28;20042;-71
2022/07/12 09:43:33;;;;;;;0.00;0.00;;;25.20;92.30;;;;;;4985086;28;20039;-71
2022/07/12 09:46:00;;;;;;;0.20;0.05;;;25.20;92.20;;;;;;4984625;28;20026;-71
2022/07/12 09:48:29;;;;;;;0.00;0.00;;;25.00;92.50;;;;;;4962978;28;20585;-71
2022/07/12 09:50:58;;;;;;;0.00;0.00;;;25.10;92.20;;;;;;4988285;28;20034;-72
2022/07/12 09:53:46;;;;;;;0.00;0.00;;;24.90;92.20;;;;;;4986368;28;20027;-72
2022/07/12 09:56:15;;;;;;;0.20;0.10;;;24.80;92.60;;;;;;4975698;28;20027;-71
2022/07/12 09:59:00;;;;;;;0.00;0.00;;;24.90;92.40;;;;;;4981568;28;20036;-71
2022/07/12 10:01:29;;;;;;;0.00;0.00;;;25.10;92.10;;;;;;4977429;28;20026;-72
2022/07/12 10:03:59;;;;;;;0.10;0.05;;;25.30;92.50;;;;;;4959137;28;20514;-72
2022/07/12 10:06:30;;;;;;;0.47;0.15;;;25.30;92.30;;;;;;4960338;28;20035;-73
2022/07/12 10:08:56;;;;;;;0.00;0.00;;;25.50;91.50;;;;;;4967664;28;20034;-72
2022/07/12 10:11:24;;;;;;;5.97;1.75;;;25.70;91.40;;;;;;4971362;28;20419;-73
2022/07/12 10:13:51;;;;;;;0.00;0.00;;;25.70;90.90;;;;;;4967559;28;20049;-73
2022/07/12 10:16:26;;;;;;;0.20;0.03;;;25.70;91.00;;;;;;4954832;28;20101;-71
2022/07/12 10:21:46;;;;;;;0.00;0.00;;;25.60;91.10;;;;;;4990154;28;20561;-73
2022/07/12 10:24:30;;;;;;;0.00;0.00;;;25.80;90.90;;;;;;4984773;28;20033;-74
2022/07/12 10:26:58;;;;;;;0.38;0.38;;;26.00;90.10;;;;;;4992612;28;20030;-72
2022/07/12 10:29:25;;;;;;;0.00;0.00;;;26.20;89.90;;;;;;4983625;28;20029;-72
2022/07/12 10:31:52;;;;;;;0.00;0.00;;;26.40;89.50;;;;;;5002509;28;20022;-73
2022/07/12 10:34:24;;;;;;;0.00;0.00;;;26.30;89.50;;;;;;4964511;28;20393;-72
2022/07/12 10:36:55;;;;;;;0.00;0.00;;;26.30;89.00;;;;;;4991709;28;20490;-71
2022/07/12 10:39:30;;;;;;;0.00;0.00;;;26.60;88.30;;;;;;4987926;28;20097;-70
2022/07/12 10:42:07;;;;;;;0.00;0.00;;;26.60;88.50;;;;;;4998553;28;20113;-72
2022/07/12 10:44:45;;;;;;;0.35;0.35;;;26.60;87.30;;;;;;4984493;28;20038;-72
2022/07/12 10:47:13;;;;;;;0.00;0.00;;;26.60;86.70;;;;;;4976249;28;20022;-66
2022/07/12 10:49:50;;;;;;;0.00;0.00;;;26.60;88.80;;;;;;4979439;28;20065;-68
2022/07/12 10:52:22;;;;;;;0.00;0.00;;;26.40;87.30;;;;;;4992037;28;20030;-68
2022/07/12 10:54:57;;;;;;;0.00;0.00;;;26.80;87.20;;;;;;4993583;28;20026;-67
2022/07/12 10:57:46;;;;;;;0.00;0.00;;;26.70;85.70;;;;;;5006554;28;20096;-68
2022/07/12 11:00:14;;;;;;;0.30;0.15;;;27.00;84.80;;;;;;4996312;28;20027;-67
2022/07/12 11:02:40;;;;;;;0.00;0.00;;;26.90;82.80;;;;;;4987225;28;20089;-67
2022/07/12 11:05:07;;;;;;;0.00;0.00;;;26.90;83.60;;;;;;4990237;28;20023;-67
2022/07/12 11:07:34;;;;;;;0.00;0.00;;;27.00;84.30;;;;;;4972745;28;20487;-69
2022/07/12 11:09:59;;;;;;;0.00;0.00;;;27.00;84.20;;;;;;4998652;28;20042;-68
2022/07/12 11:12:30;;;;;;;0.00;0.00;;;26.70;83.80;;;;;;5001656;28;20081;-68
2022/07/12 11:14:57;;;;;;;0.00;0.00;;;27.10;83.50;;;;;;4994209;28;20455;-67
2022/07/12 11:17:31;;;;;;;0.00;0.00;;;27.20;83.50;;;;;;4991339;28;20035;-67
2022/07/12 11:20:11;;;;;;;0.00;0.00;;;27.40;83.50;;;;;;4978771;28;20027;-67
2022/07/12 11:22:42;;;;;;;0.00;0.00;;;27.40;82.90;;;;;;4989178;28;20093;-67
2022/07/12 11:25:10;;;;;;;0.00;0.00;;;27.40;82.70;;;;;;4980233;28;20034;-67
2022/07/12 11:27:36;;;;;;;0.00;0.00;;;27.70;83.50;;;;;;5006406;28;20030;-67
2022/07/12 11:30:04;;;;;;;0.00;0.00;;;28.10;82.20;;;;;;4994178;28;20026;-68
2022/07/12 11:32:39;;;;;;;0.00;0.00;;;28.10;80.50;;;;;;5006763;28;20044;-68
2022/07/12 11:35:21;;;;;;;0.30;0.30;;;28.30;81.20;;;;;;4952674;28;20113;-67
2022/07/12 11:37:55;;;;;;;0.00;0.00;;;28.50;80.20;;;;;;5004789;28;20049;-66
2022/07/12 11:40:23;;;;;;;0.00;0.00;;;28.60;79.80;;;;;;4989329;28;20479;-66
2022/07/12 11:43:07;;;;;;;0.13;0.13;;;28.40;78.90;;;;;;4988773;28;20153;-67
2022/07/12 11:45:34;;;;;;;0.13;0.10;;;28.30;78.80;;;;;;4978294;28;20022;-67
2022/07/12 11:48:02;;;;;;;0.00;0.00;;;28.50;80.30;;;;;;4993097;28;20030;-67
2022/07/12 11:50:34;;;;;;;0.20;0.20;;;28.70;78.60;;;;;;4981125;28;20026;-67
2022/07/12 11:53:00;;;;;;;0.00;0.00;;;29.00;76.80;;;;;;5002537;28;20062;-67
2022/07/12 11:55:26;;;;;;;0.00;0.00;;;28.30;75.70;;;;;;4997659;28;20066;-67
2022/07/12 11:58:04;;;;;;;0.55;0.28;;;28.40;77.80;;;;;;5003954;28;20030;-66
2022/07/12 12:00:29;;;;;;;0.30;0.30;;;28.50;77.00;;;;;;4997106;28;20398;-66
2022/07/12 12:02:55;;;;;;;1.17;0.47;;;28.50;77.50;;;;;;4988174;28;20031;-67
2022/07/12 12:05:21;;;;;;;0.00;0.00;;;28.80;77.00;;;;;;4981316;28;20088;-67
2022/07/12 12:07:47;;;;;;;0.00;0.00;;;28.70;76.90;;;;;;4989581;28;20534;-67
2022/07/12 12:10:16;;;;;;;0.00;0.00;;;28.90;76.50;;;;;;4997048;28;20058;-68
2022/07/12 12:12:56;;;;;;;0.00;0.00;;;29.20;76.10;;;;;;4990865;28;20050;-67
2022/07/12 12:15:23;;;;;;;0.00;0.00;;;29.00;76.20;;;;;;4995533;28;20043;-67
2022/07/12 12:17:55;;;;;;;0.30;0.20;;;28.70;75.90;;;;;;4970556;28;20037;-67
2022/07/12 12:20:28;;;;;;;0.00;0.00;;;29.00;76.10;;;;;;4993544;28;20057;-67
2022/07/12 12:23:06;;;;;;;0.00;0.00;;;29.20;76.30;;;;;;4980186;28;20525;-67
2022/07/12 12:25:34;;;;;;;0.00;0.00;;;29.70;74.30;;;;;;4964712;28;20026;-67
2022/07/12 12:28:04;;;;;;;0.00;0.00;;;29.70;73.80;;;;;;4993987;28;20371;-67
2022/07/12 12:30:47;;;;;;;0.00;0.00;;;29.80;72.70;;;;;;4981909;28;20034;-68
2022/07/12 12:33:13;;;;;;;0.17;0.17;;;29.90;73.70;;;;;;4991177;28;20037;-67
2022/07/12 12:35:39;;;;;;;0.00;0.00;;;30.10;72.30;;;;;;4981226;28;20062;-67
2022/07/12 12:38:13;;;;;;;0.00;0.00;;;30.30;72.20;;;;;;4981898;28;20085;-67
2022/07/12 12:40:40;;;;;;;0.00;0.00;;;30.40;71.60;;;;;;5002124;28;20065;-67
2022/07/12 12:43:18;;;;;;;0.00;0.00;;;30.10;71.80;;;;;;5004562;28;20031;-67
2022/07/12 12:45:57;;;;;;;0.00;0.00;;;30.20;69.70;;;;;;4988364;28;20028;-67
2022/07/12 12:48:29;;;;;;;0.00;0.00;;;30.20;70.60;;;;;;4991915;28;20029;-66
2022/07/12 12:51:07;;;;;;;0.00;0.00;;;29.60;70.30;;;;;;4985063;28;20069;-67
2022/07/12 12:53:36;;;;;;;0.25;0.25;;;29.80;71.40;;;;;;4994310;28;20031;-68
2022/07/12 12:56:14;;;;;;;0.00;0.00;;;30.50;69.40;;;;;;5004569;28;20117;-68
2022/07/12 12:58:41;;;;;;;0.10;0.10;;;30.70;69.90;;;;;;4984660;28;20058;-67
2022/07/12 13:01:08;;;;;;;0.10;0.10;;;30.60;69.80;;;;;;5004625;28;20053;-67
2022/07/12 13:03:34;;;;;;;0.00;0.00;;;30.10;70.50;;;;;;5008195;28;20060;-67